Etusivu
METAR-TAF:

METAR-TAF

Lentoasemat :

Stanton, Minnesota, Yhdysvallat

Leveyspiiri: 44-28-32N, Pituuspiiri: 093-00-59W, korkeus merenpinnasta: 280 m

Tämänhetkinen sää

Tämä raportti tehtiin 25 minuuttia sitten, kello 05.55 UTC
Tuuli 10 kn etelästä puuskistuen 15 kn:hen
Lämpötila 23°C
Kosteus 83%
Ilmanpaine 1013 hPa
Näkyvyys: 16.1 km
selkeää

METAR: KSYN 080555Z AUTO 19010G15KT 10SM CLR 23/20 A2992 RMK AO2 T02300195 10271 20230 402710180

Aika: 01:20 (06:20 UTC)


TAF: puuttuu

Säähavainnot ja -ennusteet yli 4000 lentoasemalta (METAR- ja TAF-raportit).

Käytössä olevat sääasemat on merkitty karttaan keltaisilla ja punaisilla pisteillä.

Aseta hiiri pisteen päälle nähdäksesi sääaseman nimen.

Klikkaa sitten nähdäksesi säähavainnot ja -ennusteet.

Kartan vaihtaminen: klikkaa mustalla rastilla varustettuja vihreitä pisteitä, niin voit zoomata sisään; viivalla varustettua vihreää pistettä, niin voit zoomata ulos tai vihreitä nuolia, niin pääset viereisille kartoille.


METAR-TAF: